sensor_id;sensor_type;location;lat;lon;timestamp;temperature;humidity
26262;DHT22;13988;52.446;13.280;2023-08-20T00:00:28;23.70;99.90
26262;DHT22;13988;52.446;13.280;2023-08-20T00:02:59;23.70;99.90
26262;DHT22;13988;52.446;13.280;2023-08-20T00:05:28;23.80;99.90
26262;DHT22;13988;52.446;13.280;2023-08-20T00:07:54;23.70;99.90
26262;DHT22;13988;52.446;13.280;2023-08-20T00:10:20;23.60;99.90
26262;DHT22;13988;52.446;13.280;2023-08-20T00:12:45;23.60;99.90
26262;DHT22;13988;52.446;13.280;2023-08-20T00:15:11;23.40;99.90
26262;DHT22;13988;52.446;13.280;2023-08-20T00:17:38;23.40;99.90
26262;DHT22;13988;52.446;13.280;2023-08-20T00:20:06;23.40;99.90
26262;DHT22;13988;52.446;13.280;2023-08-20T00:22:38;23.30;99.90
26262;DHT22;13988;52.446;13.280;2023-08-20T00:25:05;23.40;99.90
26262;DHT22;13988;52.446;13.280;2023-08-20T00:27:31;23.40;99.90
26262;DHT22;13988;52.446;13.280;2023-08-20T00:29:57;23.40;99.90
26262;DHT22;13988;52.446;13.280;2023-08-20T00:32:23;23.40;99.90
26262;DHT22;13988;52.446;13.280;2023-08-20T00:34:48;23.40;99.90
26262;DHT22;13988;52.446;13.280;2023-08-20T00:37:14;23.30;99.90
26262;DHT22;13988;52.446;13.280;2023-08-20T00:39:40;23.30;99.90
26262;DHT22;13988;52.446;13.280;2023-08-20T00:42:06;23.30;99.90
26262;DHT22;13988;52.446;13.280;2023-08-20T00:44:33;23.20;99.90
26262;DHT22;13988;52.446;13.280;2023-08-20T00:47:00;23.20;99.90
26262;DHT22;13988;52.446;13.280;2023-08-20T00:49:26;23.20;99.90
26262;DHT22;13988;52.446;13.280;2023-08-20T00:51:52;23.20;99.90
26262;DHT22;13988;52.446;13.280;2023-08-20T00:54:19;23.20;99.90
26262;DHT22;13988;52.446;13.280;2023-08-20T00:56:45;23.20;99.90
26262;DHT22;13988;52.446;13.280;2023-08-20T00:59:11;23.30;99.90
26262;DHT22;13988;52.446;13.280;2023-08-20T01:01:37;23.40;99.90
26262;DHT22;13988;52.446;13.280;2023-08-20T01:04:02;23.50;99.90
26262;DHT22;13988;52.446;13.280;2023-08-20T01:06:36;23.50;99.90
26262;DHT22;13988;52.446;13.280;2023-08-20T01:09:33;23.50;99.90
26262;DHT22;13988;52.446;13.280;2023-08-20T01:12:02;23.40;99.90
26262;DHT22;13988;52.446;13.280;2023-08-20T01:14:28;23.50;99.90
26262;DHT22;13988;52.446;13.280;2023-08-20T01:16:54;23.50;99.90
26262;DHT22;13988;52.446;13.280;2023-08-20T01:19:21;23.50;99.90
26262;DHT22;13988;52.446;13.280;2023-08-20T01:25:14;23.50;99.90
26262;DHT22;13988;52.446;13.280;2023-08-20T01:28:03;23.50;99.90
26262;DHT22;13988;52.446;13.280;2023-08-20T01:30:31;23.40;99.90
26262;DHT22;13988;52.446;13.280;2023-08-20T01:32:58;23.30;99.90
26262;DHT22;13988;52.446;13.280;2023-08-20T01:35:24;23.40;99.90
26262;DHT22;13988;52.446;13.280;2023-08-20T01:37:51;23.30;99.90
26262;DHT22;13988;52.446;13.280;2023-08-20T01:40:17;23.40;99.90
26262;DHT22;13988;52.446;13.280;2023-08-20T01:42:43;23.40;99.90
26262;DHT22;13988;52.446;13.280;2023-08-20T01:45:09;23.30;99.90
26262;DHT22;13988;52.446;13.280;2023-08-20T01:47:35;23.30;99.90
26262;DHT22;13988;52.446;13.280;2023-08-20T01:50:00;23.30;99.90
26262;DHT22;13988;52.446;13.280;2023-08-20T01:52:26;23.30;99.90
26262;DHT22;13988;52.446;13.280;2023-08-20T01:54:52;23.30;99.90
26262;DHT22;13988;52.446;13.280;2023-08-20T01:57:18;23.30;99.90
26262;DHT22;13988;52.446;13.280;2023-08-20T01:59:44;23.30;99.90
26262;DHT22;13988;52.446;13.280;2023-08-20T02:02:10;23.30;99.90
26262;DHT22;13988;52.446;13.280;2023-08-20T02:04:35;23.20;99.90
26262;DHT22;13988;52.446;13.280;2023-08-20T02:07:01;23.20;99.90
26262;DHT22;13988;52.446;13.280;2023-08-20T02:09:27;23.20;99.90
26262;DHT22;13988;52.446;13.280;2023-08-20T02:11:52;23.20;99.90
26262;DHT22;13988;52.446;13.280;2023-08-20T02:14:18;23.20;99.90
26262;DHT22;13988;52.446;13.280;2023-08-20T02:16:44;23.20;99.90
26262;DHT22;13988;52.446;13.280;2023-08-20T02:19:09;23.10;99.90
26262;DHT22;13988;52.446;13.280;2023-08-20T02:21:36;23.00;99.90
26262;DHT22;13988;52.446;13.280;2023-08-20T02:24:02;23.10;99.90
26262;DHT22;13988;52.446;13.280;2023-08-20T02:26:28;23.10;99.90
26262;DHT22;13988;52.446;13.280;2023-08-20T02:28:53;23.00;99.90
26262;DHT22;13988;52.446;13.280;2023-08-20T02:31:19;23.00;99.90
26262;DHT22;13988;52.446;13.280;2023-08-20T02:33:44;23.00;99.90
26262;DHT22;13988;52.446;13.280;2023-08-20T02:36:10;22.90;99.90
26262;DHT22;13988;52.446;13.280;2023-08-20T02:38:36;22.90;99.90
26262;DHT22;13988;52.446;13.280;2023-08-20T02:41:02;22.80;99.90
26262;DHT22;13988;52.446;13.280;2023-08-20T02:43:30;22.80;99.90
26262;DHT22;13988;52.446;13.280;2023-08-20T02:45:56;22.80;99.90
26262;DHT22;13988;52.446;13.280;2023-08-20T02:48:22;22.80;99.90
26262;DHT22;13988;52.446;13.280;2023-08-20T02:50:55;22.80;99.90
26262;DHT22;13988;52.446;13.280;2023-08-20T02:53:21;22.70;99.90
26262;DHT22;13988;52.446;13.280;2023-08-20T02:55:47;22.70;99.90
26262;DHT22;13988;52.446;13.280;2023-08-20T02:58:12;22.70;99.90
26262;DHT22;13988;52.446;13.280;2023-08-20T03:00:38;22.70;99.90
26262;DHT22;13988;52.446;13.280;2023-08-20T03:03:04;22.70;99.90
26262;DHT22;13988;52.446;13.280;2023-08-20T03:05:33;22.70;99.90
26262;DHT22;13988;52.446;13.280;2023-08-20T03:07:58;22.60;99.90
26262;DHT22;13988;52.446;13.280;2023-08-20T03:10:25;22.60;99.90
26262;DHT22;13988;52.446;13.280;2023-08-20T03:12:51;22.60;99.90
26262;DHT22;13988;52.446;13.280;2023-08-20T03:15:16;22.50;99.90
26262;DHT22;13988;52.446;13.280;2023-08-20T03:17:42;22.50;99.90
26262;DHT22;13988;52.446;13.280;2023-08-20T03:20:08;22.40;99.90
26262;DHT22;13988;52.446;13.280;2023-08-20T03:22:36;22.40;99.90
26262;DHT22;13988;52.446;13.280;2023-08-20T03:25:02;22.40;99.90
26262;DHT22;13988;52.446;13.280;2023-08-20T03:27:28;22.30;99.90
26262;DHT22;13988;52.446;13.280;2023-08-20T03:29:54;22.30;99.90
26262;DHT22;13988;52.446;13.280;2023-08-20T03:32:20;22.30;99.90
26262;DHT22;13988;52.446;13.280;2023-08-20T03:34:45;22.30;99.90
26262;DHT22;13988;52.446;13.280;2023-08-20T03:37:11;22.20;99.90
26262;DHT22;13988;52.446;13.280;2023-08-20T03:39:37;22.20;99.90
26262;DHT22;13988;52.446;13.280;2023-08-20T03:42:03;22.20;99.90
26262;DHT22;13988;52.446;13.280;2023-08-20T03:44:30;22.20;99.90
26262;DHT22;13988;52.446;13.280;2023-08-20T03:46:56;22.20;99.90
26262;DHT22;13988;52.446;13.280;2023-08-20T03:49:22;22.20;99.90
26262;DHT22;13988;52.446;13.280;2023-08-20T03:51:48;22.20;99.90
26262;DHT22;13988;52.446;13.280;2023-08-20T03:54:13;22.20;99.90
26262;DHT22;13988;52.446;13.280;2023-08-20T03:56:39;22.20;99.90
26262;DHT22;13988;52.446;13.280;2023-08-20T03:59:05;22.10;99.90
26262;DHT22;13988;52.446;13.280;2023-08-20T04:01:30;22.10;99.90
26262;DHT22;13988;52.446;13.280;2023-08-20T04:03:56;22.10;99.90
26262;DHT22;13988;52.446;13.280;2023-08-20T04:06:22;22.00;99.90
26262;DHT22;13988;52.446;13.280;2023-08-20T04:08:47;22.00;99.90
26262;DHT22;13988;52.446;13.280;2023-08-20T04:11:14;22.00;99.90
26262;DHT22;13988;52.446;13.280;2023-08-20T04:13:39;22.10;99.90
26262;DHT22;13988;52.446;13.280;2023-08-20T04:16:08;22.00;99.90
26262;DHT22;13988;52.446;13.280;2023-08-20T04:18:33;22.00;99.90
26262;DHT22;13988;52.446;13.280;2023-08-20T04:20:59;22.00;99.90
26262;DHT22;13988;52.446;13.280;2023-08-20T04:23:25;22.00;99.90
26262;DHT22;13988;52.446;13.280;2023-08-20T04:25:50;22.10;99.90
26262;DHT22;13988;52.446;13.280;2023-08-20T04:28:16;22.00;99.90
26262;DHT22;13988;52.446;13.280;2023-08-20T04:30:42;22.00;99.90
26262;DHT22;13988;52.446;13.280;2023-08-20T04:33:09;21.90;99.90
26262;DHT22;13988;52.446;13.280;2023-08-20T04:35:35;21.90;99.90
26262;DHT22;13988;52.446;13.280;2023-08-20T04:38:01;22.00;99.90
26262;DHT22;13988;52.446;13.280;2023-08-20T04:40:26;22.00;99.90
26262;DHT22;13988;52.446;13.280;2023-08-20T04:42:52;21.90;99.90
26262;DHT22;13988;52.446;13.280;2023-08-20T04:45:18;21.90;99.90
26262;DHT22;13988;52.446;13.280;2023-08-20T04:47:45;21.90;99.90
26262;DHT22;13988;52.446;13.280;2023-08-20T04:50:11;21.90;99.90
26262;DHT22;13988;52.446;13.280;2023-08-20T04:52:36;21.90;99.90
26262;DHT22;13988;52.446;13.280;2023-08-20T04:55:02;21.90;99.90
26262;DHT22;13988;52.446;13.280;2023-08-20T04:57:28;21.90;99.90
26262;DHT22;13988;52.446;13.280;2023-08-20T04:59:54;21.90;99.90
26262;DHT22;13988;52.446;13.280;2023-08-20T05:02:20;21.90;99.90
26262;DHT22;13988;52.446;13.280;2023-08-20T05:04:45;21.90;99.90
26262;DHT22;13988;52.446;13.280;2023-08-20T05:07:11;22.00;99.90
26262;DHT22;13988;52.446;13.280;2023-08-20T05:09:37;22.00;99.90
26262;DHT22;13988;52.446;13.280;2023-08-20T05:12:03;22.00;99.90
26262;DHT22;13988;52.446;13.280;2023-08-20T05:14:29;22.10;99.90
26262;DHT22;13988;52.446;13.280;2023-08-20T05:16:55;22.10;99.90
26262;DHT22;13988;52.446;13.280;2023-08-20T05:19:21;22.20;99.90
26262;DHT22;13988;52.446;13.280;2023-08-20T05:21:47;22.10;99.90
26262;DHT22;13988;52.446;13.280;2023-08-20T05:24:13;22.10;99.90
26262;DHT22;13988;52.446;13.280;2023-08-20T05:26:38;22.10;99.90
26262;DHT22;13988;52.446;13.280;2023-08-20T05:29:04;22.10;99.90
26262;DHT22;13988;52.446;13.280;2023-08-20T05:31:30;22.10;99.90
26262;DHT22;13988;52.446;13.280;2023-08-20T05:33:55;22.20;99.90
26262;DHT22;13988;52.446;13.280;2023-08-20T05:36:22;22.00;99.90
26262;DHT22;13988;52.446;13.280;2023-08-20T05:38:48;22.10;99.90
26262;DHT22;13988;52.446;13.280;2023-08-20T05:41:14;22.10;99.90
26262;DHT22;13988;52.446;13.280;2023-08-20T05:43:39;21.90;99.90
26262;DHT22;13988;52.446;13.280;2023-08-20T05:46:05;21.90;99.90
26262;DHT22;13988;52.446;13.280;2023-08-20T05:48:31;22.00;99.90
26262;DHT22;13988;52.446;13.280;2023-08-20T05:50:56;22.00;99.90
26262;DHT22;13988;52.446;13.280;2023-08-20T05:53:22;22.00;99.90
26262;DHT22;13988;52.446;13.280;2023-08-20T05:55:48;22.20;99.90
26262;DHT22;13988;52.446;13.280;2023-08-20T05:58:14;22.20;99.90
26262;DHT22;13988;52.446;13.280;2023-08-20T06:00:39;22.20;99.90
26262;DHT22;13988;52.446;13.280;2023-08-20T06:03:05;22.20;99.90
26262;DHT22;13988;52.446;13.280;2023-08-20T06:05:35;22.00;99.90
26262;DHT22;13988;52.446;13.280;2023-08-20T06:08:01;22.00;99.90
26262;DHT22;13988;52.446;13.280;2023-08-20T06:10:27;22.00;99.90
26262;DHT22;13988;52.446;13.280;2023-08-20T06:12:53;21.90;99.90
26262;DHT22;13988;52.446;13.280;2023-08-20T06:15:18;22.00;99.90
26262;DHT22;13988;52.446;13.280;2023-08-20T06:17:44;22.00;99.90
26262;DHT22;13988;52.446;13.280;2023-08-20T06:20:10;22.00;99.90
26262;DHT22;13988;52.446;13.280;2023-08-20T06:22:40;22.00;99.90
26262;DHT22;13988;52.446;13.280;2023-08-20T06:25:06;21.90;99.90
26262;DHT22;13988;52.446;13.280;2023-08-20T06:27:31;21.90;99.90
26262;DHT22;13988;52.446;13.280;2023-08-20T06:29:57;21.80;99.90
26262;DHT22;13988;52.446;13.280;2023-08-20T06:32:23;21.80;99.90
26262;DHT22;13988;52.446;13.280;2023-08-20T06:34:49;21.80;99.90
26262;DHT22;13988;52.446;13.280;2023-08-20T06:37:15;22.00;99.90
26262;DHT22;13988;52.446;13.280;2023-08-20T06:39:40;22.00;99.90
26262;DHT22;13988;52.446;13.280;2023-08-20T06:42:06;22.00;99.90
26262;DHT22;13988;52.446;13.280;2023-08-20T06:44:32;22.00;99.90
26262;DHT22;13988;52.446;13.280;2023-08-20T06:46:57;22.20;99.90
26262;DHT22;13988;52.446;13.280;2023-08-20T06:49:23;22.20;99.90
26262;DHT22;13988;52.446;13.280;2023-08-20T06:51:49;22.30;99.90
26262;DHT22;13988;52.446;13.280;2023-08-20T06:54:15;22.30;99.90
26262;DHT22;13988;52.446;13.280;2023-08-20T06:56:43;22.10;99.90
26262;DHT22;13988;52.446;13.280;2023-08-20T06:59:09;22.00;99.90
26262;DHT22;13988;52.446;13.280;2023-08-20T07:01:36;22.00;99.90
26262;DHT22;13988;52.446;13.280;2023-08-20T07:04:01;22.10;99.90
26262;DHT22;13988;52.446;13.280;2023-08-20T07:06:27;22.10;99.90
26262;DHT22;13988;52.446;13.280;2023-08-20T07:08:53;22.40;99.90
26262;DHT22;13988;52.446;13.280;2023-08-20T07:11:19;22.40;99.90
26262;DHT22;13988;52.446;13.280;2023-08-20T07:13:44;22.70;99.90
26262;DHT22;13988;52.446;13.280;2023-08-20T07:16:10;23.40;99.90
26262;DHT22;13988;52.446;13.280;2023-08-20T07:18:36;24.30;99.90
26262;DHT22;13988;52.446;13.280;2023-08-20T07:21:02;24.90;99.90
26262;DHT22;13988;52.446;13.280;2023-08-20T07:23:27;24.80;99.90
26262;DHT22;13988;52.446;13.280;2023-08-20T07:26:07;24.70;99.90
26262;DHT22;13988;52.446;13.280;2023-08-20T07:28:34;24.40;99.90
26262;DHT22;13988;52.446;13.280;2023-08-20T07:31:19;24.60;99.90
26262;DHT22;13988;52.446;13.280;2023-08-20T07:33:48;23.80;99.90
26262;DHT22;13988;52.446;13.280;2023-08-20T07:36:14;24.10;99.90
26262;DHT22;13988;52.446;13.280;2023-08-20T07:38:40;23.80;99.90
26262;DHT22;13988;52.446;13.280;2023-08-20T07:41:10;23.90;99.90
26262;DHT22;13988;52.446;13.280;2023-08-20T07:43:37;23.80;99.90
26262;DHT22;13988;52.446;13.280;2023-08-20T07:46:04;23.60;99.90
26262;DHT22;13988;52.446;13.280;2023-08-20T07:48:29;24.00;99.90
26262;DHT22;13988;52.446;13.280;2023-08-20T07:50:55;24.00;99.90
26262;DHT22;13988;52.446;13.280;2023-08-20T07:53:21;23.90;99.90
26262;DHT22;13988;52.446;13.280;2023-08-20T07:55:46;23.90;99.90
26262;DHT22;13988;52.446;13.280;2023-08-20T07:58:12;24.00;99.90
26262;DHT22;13988;52.446;13.280;2023-08-20T08:00:37;23.60;99.90
26262;DHT22;13988;52.446;13.280;2023-08-20T08:03:03;23.40;99.90
26262;DHT22;13988;52.446;13.280;2023-08-20T08:05:29;23.60;99.90
26262;DHT22;13988;52.446;13.280;2023-08-20T08:07:54;23.90;99.90
26262;DHT22;13988;52.446;13.280;2023-08-20T08:10:20;23.60;99.90
26262;DHT22;13988;52.446;13.280;2023-08-20T08:12:46;23.60;99.90
26262;DHT22;13988;52.446;13.280;2023-08-20T08:15:11;23.80;99.90
26262;DHT22;13988;52.446;13.280;2023-08-20T08:17:38;24.00;99.90
26262;DHT22;13988;52.446;13.280;2023-08-20T08:20:04;23.90;99.90
26262;DHT22;13988;52.446;13.280;2023-08-20T08:22:30;24.00;99.90
26262;DHT22;13988;52.446;13.280;2023-08-20T08:24:56;24.00;99.90
26262;DHT22;13988;52.446;13.280;2023-08-20T08:27:21;24.30;99.90
26262;DHT22;13988;52.446;13.280;2023-08-20T08:29:47;24.30;99.90
26262;DHT22;13988;52.446;13.280;2023-08-20T08:32:13;24.30;99.90
26262;DHT22;13988;52.446;13.280;2023-08-20T08:34:39;24.40;99.90
26262;DHT22;13988;52.446;13.280;2023-08-20T08:37:04;24.70;99.90
26262;DHT22;13988;52.446;13.280;2023-08-20T08:39:30;24.70;99.90
26262;DHT22;13988;52.446;13.280;2023-08-20T08:42:03;24.70;99.90
26262;DHT22;13988;52.446;13.280;2023-08-20T08:44:31;24.70;99.90
26262;DHT22;13988;52.446;13.280;2023-08-20T08:46:58;25.00;99.90
26262;DHT22;13988;52.446;13.280;2023-08-20T08:49:24;24.80;99.90
26262;DHT22;13988;52.446;13.280;2023-08-20T08:51:51;24.70;99.90
26262;DHT22;13988;52.446;13.280;2023-08-20T08:54:18;24.80;99.90
26262;DHT22;13988;52.446;13.280;2023-08-20T08:56:45;24.90;99.90
26262;DHT22;13988;52.446;13.280;2023-08-20T08:59:10;25.20;99.90
26262;DHT22;13988;52.446;13.280;2023-08-20T09:01:39;25.00;99.90
26262;DHT22;13988;52.446;13.280;2023-08-20T09:04:06;25.20;99.90
26262;DHT22;13988;52.446;13.280;2023-08-20T09:06:51;25.20;99.90
26262;DHT22;13988;52.446;13.280;2023-08-20T09:09:18;25.40;99.90
26262;DHT22;13988;52.446;13.280;2023-08-20T09:11:45;25.50;99.90
26262;DHT22;13988;52.446;13.280;2023-08-20T09:14:47;25.40;99.90
26262;DHT22;13988;52.446;13.280;2023-08-20T09:17:14;25.10;99.90
26262;DHT22;13988;52.446;13.280;2023-08-20T09:19:39;25.10;99.90
26262;DHT22;13988;52.446;13.280;2023-08-20T09:22:07;25.30;99.90
26262;DHT22;13988;52.446;13.280;2023-08-20T09:24:38;25.40;99.90
26262;DHT22;13988;52.446;13.280;2023-08-20T09:27:04;25.20;99.90
26262;DHT22;13988;52.446;13.280;2023-08-20T09:29:48;25.40;99.90
26262;DHT22;13988;52.446;13.280;2023-08-20T09:34:44;25.50;99.90
26262;DHT22;13988;52.446;13.280;2023-08-20T09:37:13;25.30;99.90
26262;DHT22;13988;52.446;13.280;2023-08-20T09:39:40;25.30;99.90
26262;DHT22;13988;52.446;13.280;2023-08-20T09:42:07;25.20;99.90
26262;DHT22;13988;52.446;13.280;2023-08-20T09:44:34;25.30;99.90
26262;DHT22;13988;52.446;13.280;2023-08-20T09:47:05;25.40;99.90
26262;DHT22;13988;52.446;13.280;2023-08-20T09:49:38;25.10;99.90
26262;DHT22;13988;52.446;13.280;2023-08-20T09:52:05;25.40;99.90
26262;DHT22;13988;52.446;13.280;2023-08-20T09:54:48;25.40;99.90
26262;DHT22;13988;52.446;13.280;2023-08-20T09:57:36;25.50;99.90
26262;DHT22;13988;52.446;13.280;2023-08-20T10:00:04;25.70;99.90
26262;DHT22;13988;52.446;13.280;2023-08-20T10:02:37;25.90;99.90
26262;DHT22;13988;52.446;13.280;2023-08-20T10:05:08;26.00;99.90
26262;DHT22;13988;52.446;13.280;2023-08-20T10:07:34;26.10;99.90
26262;DHT22;13988;52.446;13.280;2023-08-20T10:10:05;26.00;99.90
26262;DHT22;13988;52.446;13.280;2023-08-20T10:12:31;25.90;99.90
26262;DHT22;13988;52.446;13.280;2023-08-20T10:15:01;26.00;99.90
26262;DHT22;13988;52.446;13.280;2023-08-20T10:17:29;25.80;99.90
26262;DHT22;13988;52.446;13.280;2023-08-20T10:19:58;25.80;99.90
26262;DHT22;13988;52.446;13.280;2023-08-20T10:22:42;25.90;99.90
26262;DHT22;13988;52.446;13.280;2023-08-20T10:25:12;25.80;99.90
26262;DHT22;13988;52.446;13.280;2023-08-20T10:27:40;25.90;99.90
26262;DHT22;13988;52.446;13.280;2023-08-20T10:30:10;26.00;99.90
26262;DHT22;13988;52.446;13.280;2023-08-20T10:35:22;25.90;99.90
26262;DHT22;13988;52.446;13.280;2023-08-20T10:38:14;25.90;99.90
26262;DHT22;13988;52.446;13.280;2023-08-20T10:43:30;26.30;99.90
26262;DHT22;13988;52.446;13.280;2023-08-20T10:46:06;26.10;99.90
26262;DHT22;13988;52.446;13.280;2023-08-20T10:48:33;26.20;99.90
26262;DHT22;13988;52.446;13.280;2023-08-20T10:51:13;26.30;99.90
26262;DHT22;13988;52.446;13.280;2023-08-20T10:53:41;26.40;99.90
26262;DHT22;13988;52.446;13.280;2023-08-20T10:56:15;26.60;99.90
26262;DHT22;13988;52.446;13.280;2023-08-20T10:58:43;26.70;99.90
26262;DHT22;13988;52.446;13.280;2023-08-20T11:01:22;26.90;99.90
26262;DHT22;13988;52.446;13.280;2023-08-20T11:03:50;27.10;99.90
26262;DHT22;13988;52.446;13.280;2023-08-20T11:06:16;27.00;99.90
26262;DHT22;13988;52.446;13.280;2023-08-20T11:08:43;26.80;99.90
26262;DHT22;13988;52.446;13.280;2023-08-20T11:11:09;27.10;99.90
26262;DHT22;13988;52.446;13.280;2023-08-20T11:13:36;27.10;99.90
26262;DHT22;13988;52.446;13.280;2023-08-20T11:16:02;27.20;99.90
26262;DHT22;13988;52.446;13.280;2023-08-20T11:18:28;27.30;99.90
26262;DHT22;13988;52.446;13.280;2023-08-20T11:20:55;27.30;99.90
26262;DHT22;13988;52.446;13.280;2023-08-20T11:23:22;27.60;99.90
26262;DHT22;13988;52.446;13.280;2023-08-20T11:25:47;27.60;99.90
26262;DHT22;13988;52.446;13.280;2023-08-20T11:28:13;27.70;99.90
26262;DHT22;13988;52.446;13.280;2023-08-20T11:30:39;27.50;99.90
26262;DHT22;13988;52.446;13.280;2023-08-20T11:33:05;28.00;99.90
26262;DHT22;13988;52.446;13.280;2023-08-20T11:35:32;28.80;99.90
26262;DHT22;13988;52.446;13.280;2023-08-20T11:37:58;29.00;99.90
26262;DHT22;13988;52.446;13.280;2023-08-20T11:40:24;29.50;99.90
26262;DHT22;13988;52.446;13.280;2023-08-20T11:42:50;29.30;99.90
26262;DHT22;13988;52.446;13.280;2023-08-20T11:45:16;29.50;99.90
26262;DHT22;13988;52.446;13.280;2023-08-20T11:47:42;29.80;99.90
26262;DHT22;13988;52.446;13.280;2023-08-20T11:50:08;29.40;99.90
26262;DHT22;13988;52.446;13.280;2023-08-20T11:52:36;30.10;99.90
26262;DHT22;13988;52.446;13.280;2023-08-20T11:55:02;30.30;99.90
26262;DHT22;13988;52.446;13.280;2023-08-20T11:57:29;29.60;99.90
26262;DHT22;13988;52.446;13.280;2023-08-20T12:00:00;29.40;99.90
26262;DHT22;13988;52.446;13.280;2023-08-20T12:02:29;29.90;99.90
26262;DHT22;13988;52.446;13.280;2023-08-20T12:04:56;30.30;99.90
26262;DHT22;13988;52.446;13.280;2023-08-20T12:07:27;30.30;99.90
26262;DHT22;13988;52.446;13.280;2023-08-20T12:09:54;30.20;99.90
26262;DHT22;13988;52.446;13.280;2023-08-20T12:12:21;30.30;99.90
26262;DHT22;13988;52.446;13.280;2023-08-20T12:14:47;30.10;99.90
26262;DHT22;13988;52.446;13.280;2023-08-20T12:17:16;29.90;99.90
26262;DHT22;13988;52.446;13.280;2023-08-20T12:19:42;30.20;99.90
26262;DHT22;13988;52.446;13.280;2023-08-20T12:22:07;30.60;99.90
26262;DHT22;13988;52.446;13.280;2023-08-20T12:24:34;30.60;99.90
26262;DHT22;13988;52.446;13.280;2023-08-20T12:26:59;30.50;99.90
26262;DHT22;13988;52.446;13.280;2023-08-20T12:29:25;30.60;99.90
26262;DHT22;13988;52.446;13.280;2023-08-20T12:31:51;30.10;99.90
26262;DHT22;13988;52.446;13.280;2023-08-20T12:34:17;30.40;99.90
26262;DHT22;13988;52.446;13.280;2023-08-20T12:36:42;30.90;99.30
26262;DHT22;13988;52.446;13.280;2023-08-20T12:39:08;31.40;94.30
26262;DHT22;13988;52.446;13.280;2023-08-20T12:41:34;31.60;95.50
26262;DHT22;13988;52.446;13.280;2023-08-20T12:44:02;31.10;98.70
26262;DHT22;13988;52.446;13.280;2023-08-20T12:46:27;30.90;94.60
26262;DHT22;13988;52.446;13.280;2023-08-20T12:48:53;30.60;94.70
26262;DHT22;13988;52.446;13.280;2023-08-20T12:51:19;30.90;93.60
26262;DHT22;13988;52.446;13.280;2023-08-20T12:53:44;30.20;93.00
26262;DHT22;13988;52.446;13.280;2023-08-20T12:56:10;31.10;90.30
26262;DHT22;13988;52.446;13.280;2023-08-20T12:58:37;30.90;85.60
26262;DHT22;13988;52.446;13.280;2023-08-20T13:01:03;30.80;81.90
26262;DHT22;13988;52.446;13.280;2023-08-20T13:03:29;31.10;84.30
26262;DHT22;13988;52.446;13.280;2023-08-20T13:05:55;31.70;90.00
26262;DHT22;13988;52.446;13.280;2023-08-20T13:08:23;31.40;79.60
26262;DHT22;13988;52.446;13.280;2023-08-20T13:10:58;31.30;77.50
26262;DHT22;13988;52.446;13.280;2023-08-20T13:13:25;31.40;81.80
26262;DHT22;13988;52.446;13.280;2023-08-20T13:15:52;32.00;78.80
26262;DHT22;13988;52.446;13.280;2023-08-20T13:18:18;31.00;77.90
26262;DHT22;13988;52.446;13.280;2023-08-20T13:20:44;31.20;78.40
26262;DHT22;13988;52.446;13.280;2023-08-20T13:23:09;31.80;82.60
26262;DHT22;13988;52.446;13.280;2023-08-20T13:25:35;31.30;78.60
26262;DHT22;13988;52.446;13.280;2023-08-20T13:28:01;31.10;76.50
26262;DHT22;13988;52.446;13.280;2023-08-20T13:30:27;30.60;78.40
26262;DHT22;13988;52.446;13.280;2023-08-20T13:32:52;30.20;84.60
26262;DHT22;13988;52.446;13.280;2023-08-20T13:35:18;30.40;85.20
26262;DHT22;13988;52.446;13.280;2023-08-20T13:37:44;30.60;85.40
26262;DHT22;13988;52.446;13.280;2023-08-20T13:40:11;30.00;87.60
26262;DHT22;13988;52.446;13.280;2023-08-20T13:42:36;29.80;87.40
26262;DHT22;13988;52.446;13.280;2023-08-20T13:45:02;29.70;90.10
26262;DHT22;13988;52.446;13.280;2023-08-20T13:47:29;29.40;90.70
26262;DHT22;13988;52.446;13.280;2023-08-20T13:49:54;29.90;91.30
26262;DHT22;13988;52.446;13.280;2023-08-20T13:52:20;29.60;90.00
26262;DHT22;13988;52.446;13.280;2023-08-20T13:54:46;29.30;93.00
26262;DHT22;13988;52.446;13.280;2023-08-20T13:57:11;29.20;92.40
26262;DHT22;13988;52.446;13.280;2023-08-20T13:59:37;29.10;93.50
26262;DHT22;13988;52.446;13.280;2023-08-20T14:02:04;28.90;95.00
26262;DHT22;13988;52.446;13.280;2023-08-20T14:04:30;29.20;93.40
26262;DHT22;13988;52.446;13.280;2023-08-20T14:06:55;29.20;92.70
26262;DHT22;13988;52.446;13.280;2023-08-20T14:09:21;29.40;92.90
26262;DHT22;13988;52.446;13.280;2023-08-20T14:11:46;29.60;90.80
26262;DHT22;13988;52.446;13.280;2023-08-20T14:14:12;29.80;89.60
26262;DHT22;13988;52.446;13.280;2023-08-20T14:16:38;29.60;90.40
26262;DHT22;13988;52.446;13.280;2023-08-20T14:19:04;29.60;91.70
26262;DHT22;13988;52.446;13.280;2023-08-20T14:21:29;29.60;93.90
26262;DHT22;13988;52.446;13.280;2023-08-20T14:23:55;29.60;95.30
26262;DHT22;13988;52.446;13.280;2023-08-20T14:26:21;29.20;90.80
26262;DHT22;13988;52.446;13.280;2023-08-20T14:28:46;29.10;91.40
26262;DHT22;13988;52.446;13.280;2023-08-20T14:31:12;29.00;89.60
26262;DHT22;13988;52.446;13.280;2023-08-20T14:33:38;29.20;91.50
26262;DHT22;13988;52.446;13.280;2023-08-20T14:36:03;29.10;91.20
26262;DHT22;13988;52.446;13.280;2023-08-20T14:38:29;29.10;91.70
26262;DHT22;13988;52.446;13.280;2023-08-20T14:41:02;29.30;92.50
26262;DHT22;13988;52.446;13.280;2023-08-20T14:43:28;29.30;92.80
26262;DHT22;13988;52.446;13.280;2023-08-20T14:45:54;29.30;90.80
26262;DHT22;13988;52.446;13.280;2023-08-20T14:48:21;29.20;90.20
26262;DHT22;13988;52.446;13.280;2023-08-20T14:50:47;29.10;88.10
26262;DHT22;13988;52.446;13.280;2023-08-20T14:53:14;29.20;93.50
26262;DHT22;13988;52.446;13.280;2023-08-20T14:55:39;29.20;91.30
26262;DHT22;13988;52.446;13.280;2023-08-20T14:58:05;28.80;92.90
26262;DHT22;13988;52.446;13.280;2023-08-20T15:00:34;28.50;94.50
26262;DHT22;13988;52.446;13.280;2023-08-20T15:03:00;28.60;93.30
26262;DHT22;13988;52.446;13.280;2023-08-20T15:05:27;28.50;93.00
26262;DHT22;13988;52.446;13.280;2023-08-20T15:07:52;28.30;98.40
26262;DHT22;13988;52.446;13.280;2023-08-20T15:10:18;28.30;94.50
26262;DHT22;13988;52.446;13.280;2023-08-20T15:12:44;28.20;95.00
26262;DHT22;13988;52.446;13.280;2023-08-20T15:15:10;28.20;94.80
26262;DHT22;13988;52.446;13.280;2023-08-20T15:17:36;28.10;96.60
26262;DHT22;13988;52.446;13.280;2023-08-20T15:20:03;28.30;93.10
26262;DHT22;13988;52.446;13.280;2023-08-20T15:22:36;28.30;93.60
26262;DHT22;13988;52.446;13.280;2023-08-20T15:25:02;28.20;96.60